sensor_id;sensor_type;location;lat;lon;timestamp;P1;durP1;ratioP1;P2;durP2;ratioP2
27857;SDS011;16852;51.446;6.528;2022-07-29T00:00:17;2.08;;;1.02;;
27857;SDS011;16852;51.446;6.528;2022-07-29T00:02:17;2.17;;;0.90;;
27857;SDS011;16852;51.446;6.528;2022-07-29T00:04:18;3.47;;;1.25;;
27857;SDS011;16852;51.446;6.528;2022-07-29T00:06:19;1.48;;;1.00;;
27857;SDS011;16852;51.446;6.528;2022-07-29T00:08:20;1.38;;;1.10;;
27857;SDS011;16852;51.446;6.528;2022-07-29T00:10:21;2.22;;;0.85;;
27857;SDS011;16852;51.446;6.528;2022-07-29T00:12:22;1.70;;;0.85;;
27857;SDS011;16852;51.446;6.528;2022-07-29T00:14:24;1.35;;;1.00;;
27857;SDS011;16852;51.446;6.528;2022-07-29T00:16:25;3.65;;;1.27;;
27857;SDS011;16852;51.446;6.528;2022-07-29T00:18:25;1.98;;;1.00;;
27857;SDS011;16852;51.446;6.528;2022-07-29T00:20:26;3.65;;;1.38;;
27857;SDS011;16852;51.446;6.528;2022-07-29T00:22:27;3.05;;;1.27;;
27857;SDS011;16852;51.446;6.528;2022-07-29T00:24:27;2.38;;;0.98;;
27857;SDS011;16852;51.446;6.528;2022-07-29T00:26:28;2.90;;;1.00;;
27857;SDS011;16852;51.446;6.528;2022-07-29T00:28:31;4.75;;;1.38;;
27857;SDS011;16852;51.446;6.528;2022-07-29T00:30:32;1.60;;;0.95;;
27857;SDS011;16852;51.446;6.528;2022-07-29T00:32:32;2.97;;;1.33;;
27857;SDS011;16852;51.446;6.528;2022-07-29T00:34:33;3.33;;;1.00;;
27857;SDS011;16852;51.446;6.528;2022-07-29T00:36:52;8.43;;;1.10;;
27857;SDS011;16852;51.446;6.528;2022-07-29T00:38:53;2.42;;;1.10;;
27857;SDS011;16852;51.446;6.528;2022-07-29T00:40:54;2.25;;;0.95;;
27857;SDS011;16852;51.446;6.528;2022-07-29T00:42:54;2.15;;;0.98;;
27857;SDS011;16852;51.446;6.528;2022-07-29T00:44:55;2.45;;;1.30;;
27857;SDS011;16852;51.446;6.528;2022-07-29T00:46:55;2.47;;;1.05;;
27857;SDS011;16852;51.446;6.528;2022-07-29T00:48:56;1.58;;;0.90;;
27857;SDS011;16852;51.446;6.528;2022-07-29T00:50:57;2.97;;;1.00;;
27857;SDS011;16852;51.446;6.528;2022-07-29T00:52:59;1.60;;;1.00;;
27857;SDS011;16852;51.446;6.528;2022-07-29T00:55:02;3.42;;;0.98;;
27857;SDS011;16852;51.446;6.528;2022-07-29T00:57:07;3.78;;;0.90;;
27857;SDS011;16852;51.446;6.528;2022-07-29T00:59:08;3.20;;;1.08;;
27857;SDS011;16852;51.446;6.528;2022-07-29T01:01:08;1.23;;;0.75;;
27857;SDS011;16852;51.446;6.528;2022-07-29T01:03:09;1.45;;;0.60;;
27857;SDS011;16852;51.446;6.528;2022-07-29T01:05:09;1.10;;;0.88;;
27857;SDS011;16852;51.446;6.528;2022-07-29T01:09:13;2.88;;;1.15;;
27857;SDS011;16852;51.446;6.528;2022-07-29T01:11:15;3.03;;;1.15;;
27857;SDS011;16852;51.446;6.528;2022-07-29T01:13:18;3.03;;;1.38;;
27857;SDS011;16852;51.446;6.528;2022-07-29T01:15:20;3.30;;;1.42;;
27857;SDS011;16852;51.446;6.528;2022-07-29T01:17:24;3.00;;;1.13;;
27857;SDS011;16852;51.446;6.528;2022-07-29T01:19:48;1.65;;;1.05;;
27857;SDS011;16852;51.446;6.528;2022-07-29T01:21:57;2.33;;;1.23;;
27857;SDS011;16852;51.446;6.528;2022-07-29T01:30:29;3.28;;;0.65;;
27857;SDS011;16852;51.446;6.528;2022-07-29T01:32:33;2.53;;;1.10;;
27857;SDS011;16852;51.446;6.528;2022-07-29T01:34:50;3.15;;;0.98;;
27857;SDS011;16852;51.446;6.528;2022-07-29T01:36:55;1.80;;;0.80;;
27857;SDS011;16852;51.446;6.528;2022-07-29T01:39:07;1.65;;;0.85;;
27857;SDS011;16852;51.446;6.528;2022-07-29T01:41:15;1.73;;;0.98;;
27857;SDS011;16852;51.446;6.528;2022-07-29T01:43:20;3.83;;;0.93;;
27857;SDS011;16852;51.446;6.528;2022-07-29T01:47:39;3.58;;;0.90;;
27857;SDS011;16852;51.446;6.528;2022-07-29T01:49:46;1.23;;;0.80;;
27857;SDS011;16852;51.446;6.528;2022-07-29T01:52:03;1.58;;;0.70;;
27857;SDS011;16852;51.446;6.528;2022-07-29T01:54:13;3.30;;;1.13;;
27857;SDS011;16852;51.446;6.528;2022-07-29T01:56:14;1.10;;;0.88;;
27857;SDS011;16852;51.446;6.528;2022-07-29T01:58:18;2.28;;;0.93;;
27857;SDS011;16852;51.446;6.528;2022-07-29T02:00:20;2.03;;;1.10;;
27857;SDS011;16852;51.446;6.528;2022-07-29T02:02:23;2.08;;;1.10;;
27857;SDS011;16852;51.446;6.528;2022-07-29T02:04:25;2.75;;;0.98;;
27857;SDS011;16852;51.446;6.528;2022-07-29T02:06:28;3.60;;;0.85;;
27857;SDS011;16852;51.446;6.528;2022-07-29T02:08:31;4.05;;;1.13;;
27857;SDS011;16852;51.446;6.528;2022-07-29T02:10:33;2.28;;;1.00;;
27857;SDS011;16852;51.446;6.528;2022-07-29T02:12:36;5.80;;;1.67;;
27857;SDS011;16852;51.446;6.528;2022-07-29T02:14:40;6.68;;;1.30;;
27857;SDS011;16852;51.446;6.528;2022-07-29T02:16:44;1.70;;;0.88;;
27857;SDS011;16852;51.446;6.528;2022-07-29T02:18:47;4.03;;;1.23;;
27857;SDS011;16852;51.446;6.528;2022-07-29T02:20:52;3.65;;;0.98;;
27857;SDS011;16852;51.446;6.528;2022-07-29T02:22:55;3.95;;;1.23;;
27857;SDS011;16852;51.446;6.528;2022-07-29T02:24:58;2.13;;;1.10;;
27857;SDS011;16852;51.446;6.528;2022-07-29T02:26:59;3.47;;;0.93;;
27857;SDS011;16852;51.446;6.528;2022-07-29T02:29:02;2.63;;;1.00;;
27857;SDS011;16852;51.446;6.528;2022-07-29T02:31:02;3.33;;;1.25;;
27857;SDS011;16852;51.446;6.528;2022-07-29T02:33:04;5.72;;;1.13;;
27857;SDS011;16852;51.446;6.528;2022-07-29T02:35:06;1.92;;;1.00;;
27857;SDS011;16852;51.446;6.528;2022-07-29T02:37:09;4.88;;;1.10;;
27857;SDS011;16852;51.446;6.528;2022-07-29T02:39:11;3.83;;;1.15;;
27857;SDS011;16852;51.446;6.528;2022-07-29T02:41:15;3.17;;;1.20;;
27857;SDS011;16852;51.446;6.528;2022-07-29T02:43:37;1.75;;;0.80;;
27857;SDS011;16852;51.446;6.528;2022-07-29T02:45:40;2.85;;;0.73;;
27857;SDS011;16852;51.446;6.528;2022-07-29T02:47:43;3.22;;;1.10;;
27857;SDS011;16852;51.446;6.528;2022-07-29T02:51:54;2.58;;;0.90;;
27857;SDS011;16852;51.446;6.528;2022-07-29T02:53:58;3.67;;;1.40;;
27857;SDS011;16852;51.446;6.528;2022-07-29T02:56:10;2.40;;;1.10;;
27857;SDS011;16852;51.446;6.528;2022-07-29T02:59:23;2.15;;;1.02;;
27857;SDS011;16852;51.446;6.528;2022-07-29T03:01:27;5.13;;;1.67;;
27857;SDS011;16852;51.446;6.528;2022-07-29T03:03:34;2.72;;;1.20;;
27857;SDS011;16852;51.446;6.528;2022-07-29T03:05:37;3.05;;;1.30;;
27857;SDS011;16852;51.446;6.528;2022-07-29T03:07:38;1.75;;;0.85;;
27857;SDS011;16852;51.446;6.528;2022-07-29T03:09:40;2.20;;;0.93;;
27857;SDS011;16852;51.446;6.528;2022-07-29T03:11:42;2.72;;;1.00;;
27857;SDS011;16852;51.446;6.528;2022-07-29T03:13:44;1.77;;;1.02;;
27857;SDS011;16852;51.446;6.528;2022-07-29T03:15:45;1.85;;;0.73;;
27857;SDS011;16852;51.446;6.528;2022-07-29T03:17:47;3.38;;;1.35;;
27857;SDS011;16852;51.446;6.528;2022-07-29T03:19:48;2.75;;;1.25;;
27857;SDS011;16852;51.446;6.528;2022-07-29T03:21:49;3.58;;;1.13;;
27857;SDS011;16852;51.446;6.528;2022-07-29T03:23:50;3.90;;;1.40;;
27857;SDS011;16852;51.446;6.528;2022-07-29T03:25:51;2.25;;;1.20;;
27857;SDS011;16852;51.446;6.528;2022-07-29T03:27:52;6.30;;;1.25;;
27857;SDS011;16852;51.446;6.528;2022-07-29T03:29:53;2.63;;;0.95;;
27857;SDS011;16852;51.446;6.528;2022-07-29T03:31:53;2.92;;;1.00;;
27857;SDS011;16852;51.446;6.528;2022-07-29T03:33:54;2.88;;;0.80;;
27857;SDS011;16852;51.446;6.528;2022-07-29T03:35:55;1.52;;;0.77;;
27857;SDS011;16852;51.446;6.528;2022-07-29T03:37:56;1.20;;;0.73;;
27857;SDS011;16852;51.446;6.528;2022-07-29T03:39:57;2.50;;;0.82;;
27857;SDS011;16852;51.446;6.528;2022-07-29T03:41:58;3.85;;;0.90;;
27857;SDS011;16852;51.446;6.528;2022-07-29T03:44:00;1.25;;;0.70;;
27857;SDS011;16852;51.446;6.528;2022-07-29T03:46:03;1.60;;;0.90;;
27857;SDS011;16852;51.446;6.528;2022-07-29T03:48:07;1.35;;;1.00;;
27857;SDS011;16852;51.446;6.528;2022-07-29T03:50:10;1.70;;;0.88;;
27857;SDS011;16852;51.446;6.528;2022-07-29T03:52:13;1.77;;;0.90;;
27857;SDS011;16852;51.446;6.528;2022-07-29T03:54:13;2.70;;;0.85;;
27857;SDS011;16852;51.446;6.528;2022-07-29T03:56:15;2.72;;;0.75;;
27857;SDS011;16852;51.446;6.528;2022-07-29T03:58:20;2.30;;;1.30;;
27857;SDS011;16852;51.446;6.528;2022-07-29T04:00:22;2.80;;;1.20;;
27857;SDS011;16852;51.446;6.528;2022-07-29T04:02:23;2.90;;;1.08;;
27857;SDS011;16852;51.446;6.528;2022-07-29T04:04:25;1.83;;;1.00;;
27857;SDS011;16852;51.446;6.528;2022-07-29T04:06:26;0.82;;;0.68;;
27857;SDS011;16852;51.446;6.528;2022-07-29T04:08:26;0.80;;;0.68;;
27857;SDS011;16852;51.446;6.528;2022-07-29T04:10:27;2.08;;;0.90;;
27857;SDS011;16852;51.446;6.528;2022-07-29T04:12:28;1.52;;;0.93;;
27857;SDS011;16852;51.446;6.528;2022-07-29T04:14:29;1.65;;;1.13;;
27857;SDS011;16852;51.446;6.528;2022-07-29T04:16:31;2.25;;;0.75;;
27857;SDS011;16852;51.446;6.528;2022-07-29T04:18:31;1.92;;;0.85;;
27857;SDS011;16852;51.446;6.528;2022-07-29T04:20:32;4.03;;;1.23;;
27857;SDS011;16852;51.446;6.528;2022-07-29T04:22:33;2.08;;;1.00;;
27857;SDS011;16852;51.446;6.528;2022-07-29T04:24:34;2.72;;;1.20;;
27857;SDS011;16852;51.446;6.528;2022-07-29T04:26:34;3.67;;;1.20;;
27857;SDS011;16852;51.446;6.528;2022-07-29T04:28:35;2.47;;;0.95;;
27857;SDS011;16852;51.446;6.528;2022-07-29T04:30:36;2.75;;;1.27;;
27857;SDS011;16852;51.446;6.528;2022-07-29T04:32:37;3.08;;;0.98;;
27857;SDS011;16852;51.446;6.528;2022-07-29T04:34:37;1.98;;;1.00;;
27857;SDS011;16852;51.446;6.528;2022-07-29T04:36:38;2.35;;;1.00;;
27857;SDS011;16852;51.446;6.528;2022-07-29T04:38:38;2.72;;;1.30;;
27857;SDS011;16852;51.446;6.528;2022-07-29T04:46:33;4.28;;;1.02;;
27857;SDS011;16852;51.446;6.528;2022-07-29T04:48:34;2.33;;;1.23;;
27857;SDS011;16852;51.446;6.528;2022-07-29T04:50:37;5.03;;;1.75;;
27857;SDS011;16852;51.446;6.528;2022-07-29T04:52:39;2.83;;;1.13;;
27857;SDS011;16852;51.446;6.528;2022-07-29T04:54:40;6.18;;;1.70;;
27857;SDS011;16852;51.446;6.528;2022-07-29T04:56:40;6.82;;;1.63;;
27857;SDS011;16852;51.446;6.528;2022-07-29T04:58:41;3.17;;;1.25;;
27857;SDS011;16852;51.446;6.528;2022-07-29T05:00:42;1.40;;;1.00;;
27857;SDS011;16852;51.446;6.528;2022-07-29T05:02:42;1.75;;;1.02;;
27857;SDS011;16852;51.446;6.528;2022-07-29T05:04:43;2.38;;;1.20;;
27857;SDS011;16852;51.446;6.528;2022-07-29T05:06:43;4.13;;;1.60;;
27857;SDS011;16852;51.446;6.528;2022-07-29T05:08:44;2.75;;;1.10;;
27857;SDS011;16852;51.446;6.528;2022-07-29T05:10:45;3.28;;;1.20;;
27857;SDS011;16852;51.446;6.528;2022-07-29T05:12:46;4.88;;;1.77;;
27857;SDS011;16852;51.446;6.528;2022-07-29T05:14:47;4.47;;;1.20;;
27857;SDS011;16852;51.446;6.528;2022-07-29T05:16:47;2.00;;;1.23;;
27857;SDS011;16852;51.446;6.528;2022-07-29T05:18:50;3.35;;;1.50;;
27857;SDS011;16852;51.446;6.528;2022-07-29T05:20:51;2.65;;;1.58;;
27857;SDS011;16852;51.446;6.528;2022-07-29T05:22:52;3.33;;;1.63;;
27857;SDS011;16852;51.446;6.528;2022-07-29T05:24:52;1.77;;;1.17;;
27857;SDS011;16852;51.446;6.528;2022-07-29T05:26:53;4.72;;;1.67;;
27857;SDS011;16852;51.446;6.528;2022-07-29T05:28:53;1.67;;;1.27;;
27857;SDS011;16852;51.446;6.528;2022-07-29T05:30:54;3.08;;;1.63;;
27857;SDS011;16852;51.446;6.528;2022-07-29T05:32:56;2.22;;;1.17;;
27857;SDS011;16852;51.446;6.528;2022-07-29T05:34:56;3.17;;;1.33;;
27857;SDS011;16852;51.446;6.528;2022-07-29T05:36:57;3.08;;;1.63;;
27857;SDS011;16852;51.446;6.528;2022-07-29T05:38:57;2.35;;;1.45;;
27857;SDS011;16852;51.446;6.528;2022-07-29T05:40:58;9.68;;;1.40;;
27857;SDS011;16852;51.446;6.528;2022-07-29T05:42:59;4.10;;;1.42;;
27857;SDS011;16852;51.446;6.528;2022-07-29T05:45:00;3.60;;;1.67;;
27857;SDS011;16852;51.446;6.528;2022-07-29T05:47:01;3.42;;;1.60;;
27857;SDS011;16852;51.446;6.528;2022-07-29T05:49:02;2.65;;;1.48;;
27857;SDS011;16852;51.446;6.528;2022-07-29T05:51:03;2.72;;;1.40;;
27857;SDS011;16852;51.446;6.528;2022-07-29T05:53:05;4.13;;;2.13;;
27857;SDS011;16852;51.446;6.528;2022-07-29T05:55:06;4.55;;;1.98;;
27857;SDS011;16852;51.446;6.528;2022-07-29T05:57:07;4.72;;;1.90;;
27857;SDS011;16852;51.446;6.528;2022-07-29T05:59:08;2.45;;;1.50;;
27857;SDS011;16852;51.446;6.528;2022-07-29T06:01:09;13.50;;;9.68;;
27857;SDS011;16852;51.446;6.528;2022-07-29T06:03:10;228.73;;;74.53;;
